8e Meeting de Natation Lille Métropole Natation

Compétition Nationale

LILLE

Du Vendredi 15 Janvier 2016 au Dimanche 17 Janvier 2016

Bassin de 50m

100 Nage Libre Dames

Finale A

Nom Année Temps Pts Club Pays
1 REMY Adeline 2000 1:00:22 1177 STADE BÉTHUNE PÉLICAN CLUB FRA
2 NOGE Lisa 1996 1:01:54 1136 LILLE UC NATATION FRA
3 AVET Leonie 2001 1:01:82 1127 CN BERRE MIXTES FRA
4 VANDENBROUCKE Bo 2001 1:02:47 1107 CN BERRE MIXTES FRA
5 DEPAUW Carla 1999 1:02:65 1101 DUNKERQUE NATATION FRA
6 COCHETEUX Emma 2001 1:02:94 1092 DUNKERQUE NATATION FRA
7 VEREECKE Céleste 2002 1:03:49 1075 US ST-ANDRÉ FRA
8 VAN HYFTE Isaura 1999 1:03:67 1070 CN BERRE MIXTES FRA

Finale B

Nom Année Temps Pts Club Pays
1 HODONOU Agathe 2002 1:01:84 1126 US ST-ANDRÉ FRA
2 PONTEUR Ellen 1999 1:02:83 1095 CN BERRE MIXTES FRA
3 SIX Claire 2002 1:03:22 1084 DUNKERQUE NATATION FRA
4 LEPERS Julia 2001 1:03:29 1081 DAUPHINS WATTRELOS FRA
5 DELOBEL Mélaine 1998 1:05:24 1023 SO ARMENTIÈRES FRA
6 HOUZET Clarisse 2000 1:05:54 1014 LILLE MÉTROPOLE NATATION FRA
7 DANDOIS Emma 1999 1:05:55 1013 MARCQ NATATION FRA
8 SABBE Julie 1996 1:06:31 991 MARCQ NATATION FRA

Finale C

Nom Année Temps Pts Club Pays
1 GAMBLIN Célia 2000 1:02:52 1105 CN CAMBRAI FRA
2 LOONES Thuline 2000 1:04:76 1037 CN BERRE MIXTES FRA
3 MERLEVEDE Louise 1999 1:04:84 1034 DUNKERQUE NATATION FRA
4 HAMDINI Ryma 2001 1:05:12 1026 LILLE MÉTROPOLE NATATION FRA
5 MAKOUALA Alizee 2001 1:05:17 1025 AVAN VILLENEUVE-D'ASCQ FRA
6 SOUBRIER Clara 1998 1:05:38 1018 LILLE MÉTROPOLE NATATION FRA
7 VILLAYES Marine 1997 1:06:06 998 CN CAMBRAI FRA
8 DAMIE Josephine 1998 1:06:72 979 US ST-ANDRÉ FRA

Séries

Nom Année Temps Pts Club Pays
1 REMY Adeline 2000 1:00:97 1153 STADE BÉTHUNE PÉLICAN CLUB FRA
2 NOGE Lisa 1996 1:01:26 1144 LILLE UC NATATION FRA
3 AVET Leonie 2001 1:01:31 1143 CN BERRE MIXTES FRA
4 GRANDIDIER Estee 1999 1:01:79 1128 LILLE MÉTROPOLE NATATION FRA
5 VANDENBROUCKE Bo 2001 1:02:15 1117 CN BERRE MIXTES FRA
6 DEPAUW Carla 1999 1:02:21 1115 DUNKERQUE NATATION FRA
7 VAN HYFTE Isaura 1999 1:02:35 1110 CN BERRE MIXTES FRA
8 COCHETEUX Emma 2001 1:02:50 1106 DUNKERQUE NATATION FRA
9 VEREECKE Céleste 2002 1:03:05 1089 US ST-ANDRÉ FRA
10 HODONOU Agathe 2002 1:03:11 1087 US ST-ANDRÉ FRA
11 SIX Claire 2002 1:03:17 1085 DUNKERQUE NATATION FRA
12 PONTEUR Ellen 1999 1:03:25 1083 CN BERRE MIXTES FRA
13 LEPERS Julia 2001 1:03:55 1073 DAUPHINS WATTRELOS FRA
14 SWIATEK Alexia 1997 1:04:09 1057 LILLE MÉTROPOLE NATATION FRA
15 LAGNEAU Angélina 2000 1:04:33 1050 CN FOURMIES FRA
16 DANDOIS Emma 1999 1:04:81 1035 MARCQ NATATION FRA
17 DELOBEL Mélaine 1998 1:04:97 1031 SO ARMENTIÈRES FRA
18 HOUZET Clarisse 2000 1:05:14 1026 LILLE MÉTROPOLE NATATION FRA
19 SABBE Julie 1996 1:05:17 1025 MARCQ NATATION FRA
20 GAMBLIN Célia 2000 1:05:28 1021 CN CAMBRAI FRA
21 MAKOUALA Alizee 2001 1:05:29 1021 AVAN VILLENEUVE-D'ASCQ FRA
22 SOUBRIER Clara 1998 1:05:34 1020 LILLE MÉTROPOLE NATATION FRA
23 VILLAYES Marine 1997 1:05:42 1017 CN CAMBRAI FRA
24 MERLEVEDE Louise 1999 1:05:63 1011 DUNKERQUE NATATION FRA
25 DAMIE Josephine 1998 1:05:65 1010 US ST-ANDRÉ FRA
26 LOONES Thuline 2000 1:05:66 1010 CN BERRE MIXTES FRA
27 HAMDINI Ryma 2001 1:05:80 1006 LILLE MÉTROPOLE NATATION FRA
28 DUTERRAGE Izia 1992 1:06:06 998 ST-AMAND NAT PORTE DU HAINAUT FRA
29 LEQUIEN Constance 2000 1:06:12 997 ST-AMAND NAT PORTE DU HAINAUT FRA
30 DE DEYNE Lise 2001 1:06:16 995 CN BERRE MIXTES FRA
31 ANDRIEU Nathalie 2002 1:06:25 993 DUNKERQUE NATATION FRA
32 BERTOUT Leonie 1998 1:06:66 981 LILLE UC NATATION FRA
33 DEMONCHAUX Lisa 2002 1:06:67 980 CN CAMBRAI FRA
34 JOUHANNEAU Charlotte 2001 1:06:79 977 DAUPHINS WATTRELOS FRA
35 NEYT Alissia 1999 1:06:91 974 CN BERRE MIXTES FRA
36 BUYSSE Josephine 1999 1:06:94 973 CN BERRE MIXTES FRA
37 GEORGES Delphine 2002 1:06:96 972 LILLE UC NATATION FRA
38 VANDERSLUYS Léa 2002 1:07:05 969 DUNKERQUE NATATION FRA
39 DUBOIS Louise 1999 1:07:09 968 SECLIN NATATION FRA
40 LANCEZ Emma 2001 1:07:19 965 RACING CLUB ARRAS FRA
41 PETIT Marion 2002 1:07:23 964 DUNKERQUE NATATION FRA
42 HOURSON Gabrielle 1997 1:07:36 960 RACING CLUB ARRAS FRA
43 DUROT Camille 2001 1:07:58 954 DUNKERQUE NATATION FRA
44 KACZOROWSKI Emma 1998 1:07:62 953 US ST-ANDRÉ FRA
45 BRUNELLI Luana 1999 1:07:65 952 CN BERRE MIXTES FRA
46 PLADYS Joanne 2001 1:07:67 952 DUNKERQUE NATATION FRA
47 TOUSSIROT Émilie 2001 1:07:82 947 AAE PÉRONNE FRA
48 BIKARD Jade 2000 1:07:89 945 LILLE UC NATATION FRA
49 BERTHIER Laura 2000 1:07:90 945 ST-AMAND NAT PORTE DU HAINAUT FRA
50 PROOT Adéle 2000 1:07:92 944 SO ARMENTIÈRES FRA
51 BLONDEL Lea 2000 1:08:15 938 AVAN VILLENEUVE-D'ASCQ FRA
52 BECAR Evangeline 2002 1:08:27 934 CN FOURMIES FRA
53 MOREIRA Julia 2001 1:08:67 923 US ST-ANDRÉ FRA
54 BOULET Louise 1997 1:08:89 917 LILLE UC NATATION FRA
55 MERLIER Jade 2001 1:08:91 916 DUNKERQUE NATATION FRA
56 BLOTHIAUX Aline 2001 1:09:04 913 CN BERRE MIXTES FRA
57 LESAGE Amelie 1999 1:09:07 912 SECLIN NATATION FRA
58 LUX Angéline 2001 1:09:13 910 CN COURRIÈRES FRA
59 BOURGEOIS Heloise 2000 1:09:35 904 AVAN VILLENEUVE-D'ASCQ FRA
60 LIEBERT Meline 2002 1:09:39 903 CN FOURMIES FRA
61 JEDRASIK Marie-Amélie 2001 1:09:49 900 CN FOURMIES FRA
62 MOTURY Juliette 2000 1:09:53 899 MARCQ NATATION FRA
63 MAREZ Marie 2000 1:09:88 889 PROVINS NATATION FRA
64 ROBITAILLE Caroline 2001 1:09:90 889 AVAN VILLENEUVE-D'ASCQ FRA
65 GIELEN Ophelie 2001 1:10:43 874 ROUBAIX NATATION FRA
66 LANGLET Maureen 1998 1:10:50 872 GRAVELINES NATATION FRA
67 LIAGRE Marielou 1999 1:10:53 871 DAUPHINS WATTRELOS FRA
68 KONRAD Lory 2000 1:10:91 861 CN COURRIÈRES FRA
69 DE WAELE Mathilde 2000 1:11:00 858 LILLE MÉTROPOLE NATATION FRA
70 NOUCHET Alexandra 1998 1:11:18 854 DUNKERQUE NATATION FRA
71 BACCAUW Margaux 2001 1:11:44 846 DENAIN NAT. PORTE DU HAINAUT FRA
72 DELANNOY Justine 1998 1:11:59 842 ST-AMAND NAT PORTE DU HAINAUT FRA
73 RAMBUR Alizé 1995 1:11:79 837 GRAVELINES NATATION FRA
74 GOBERT Eleonore 2000 1:12:77 811 DAUPHINS WATTRELOS FRA
75 JANVIER Lea 2000 1:12:83 809 MARCQ NATATION FRA
76 SZMANIA Jeanne 2000 1:12:90 807 CN COURRIÈRES FRA
77 BOURON Perrine 2000 1:13:13 801 PROVINS NATATION FRA
78 MASSELOT Flore 2002 1:13:15 801 AAE PÉRONNE FRA
79 PAJAK Paige 2002 1:13:18 800 AAE PÉRONNE FRA
80 MARTIN Solene 2002 1:13:25 798 SO ARMENTIÈRES FRA
81 AÏT GHERBI Karla 2002 1:13:29 797 AVAN VILLENEUVE-D'ASCQ FRA
82 VERDIERE Suson 2002 1:13:56 790 SECLIN NATATION FRA
83 ELACHACHI Imane 2002 1:13:64 788 US ST-ANDRÉ FRA
84 TAVERNIER Lola 2002 1:13:67 787 US ST-ANDRÉ FRA
85 DUSSART Melissa 2002 1:14:00 779 ST-AMAND NAT PORTE DU HAINAUT FRA
86 ROQUETTE Philippine 1999 1:14:19 774 US ST-ANDRÉ FRA
87 CLOT Natacha 2001 1:14:26 772 US ST-ANDRÉ FRA
88 BOUMAHDI Ines 2001 1:14:77 759 CN CROIX FRA
89 VANDEWALLE Lea 2002 1:14:89 756 CN CAMBRAI FRA
90 SABBE Lily 2000 1:15:10 750 MARCQ NATATION FRA
91 JUBERT Lisa 2002 1:15:66 736 CN CAMBRAI FRA
92 NORMAND Cecile 2002 1:16:54 714 ST-POL-SUR-MER NATATION FRA
93 BENSALEM Yasmine 2002 1:16:88 706 ROUBAIX NATATION FRA
94 PIJANOWSKI Alexia 2002 1:17:04 702 RACING CLUB ARRAS FRA
95 GAUTHIER Auriane 1998 1:18:33 670 US ST-ANDRÉ FRA
96 GOSSELIN Beverley 2001 1:24:60 528 ST-POL-SUR-MER NATATION FRA
SAINT-AMAND NATATION PORTE DU HAINAUT